sensor_id;sensor_type;location;lat;lon;timestamp;P1;durP1;ratioP1;P2;durP2;ratioP2
84937;SDS011;75210;52.210;20.902;2024-01-10T00:00:07;77.07;;;28.33;;
84937;SDS011;75210;52.210;20.902;2024-01-10T00:01:08;70.40;;;26.67;;
84937;SDS011;75210;52.210;20.902;2024-01-10T00:02:10;81.78;;;27.98;;
84937;SDS011;75210;52.210;20.902;2024-01-10T00:03:11;77.82;;;28.80;;
84937;SDS011;75210;52.210;20.902;2024-01-10T00:04:11;76.60;;;27.05;;
84937;SDS011;75210;52.210;20.902;2024-01-10T00:05:11;71.90;;;24.50;;
84937;SDS011;75210;52.210;20.902;2024-01-10T00:06:12;75.82;;;27.27;;
84937;SDS011;75210;52.210;20.902;2024-01-10T00:07:12;74.72;;;27.75;;
84937;SDS011;75210;52.210;20.902;2024-01-10T00:08:13;78.05;;;28.35;;
84937;SDS011;75210;52.210;20.902;2024-01-10T00:09:13;72.38;;;27.77;;
84937;SDS011;75210;52.210;20.902;2024-01-10T00:10:14;66.38;;;24.30;;
84937;SDS011;75210;52.210;20.902;2024-01-10T00:11:14;74.85;;;28.10;;
84937;SDS011;75210;52.210;20.902;2024-01-10T00:12:14;77.85;;;26.83;;
84937;SDS011;75210;52.210;20.902;2024-01-10T00:13:15;71.90;;;26.75;;
84937;SDS011;75210;52.210;20.902;2024-01-10T00:14:15;76.53;;;27.25;;
84937;SDS011;75210;52.210;20.902;2024-01-10T00:15:16;73.82;;;26.70;;
84937;SDS011;75210;52.210;20.902;2024-01-10T00:16:16;79.18;;;26.58;;
84937;SDS011;75210;52.210;20.902;2024-01-10T00:17:18;77.97;;;28.15;;
84937;SDS011;75210;52.210;20.902;2024-01-10T00:18:18;70.10;;;25.98;;
84937;SDS011;75210;52.210;20.902;2024-01-10T00:19:19;73.13;;;25.33;;
84937;SDS011;75210;52.210;20.902;2024-01-10T00:20:19;83.13;;;29.95;;
84937;SDS011;75210;52.210;20.902;2024-01-10T00:21:20;71.60;;;27.00;;
84937;SDS011;75210;52.210;20.902;2024-01-10T00:22:20;82.43;;;28.20;;
84937;SDS011;75210;52.210;20.902;2024-01-10T00:23:20;81.88;;;29.00;;
84937;SDS011;75210;52.210;20.902;2024-01-10T00:24:21;85.20;;;29.05;;
84937;SDS011;75210;52.210;20.902;2024-01-10T00:25:21;84.70;;;30.45;;
84937;SDS011;75210;52.210;20.902;2024-01-10T00:26:21;79.28;;;29.30;;
84937;SDS011;75210;52.210;20.902;2024-01-10T00:27:22;82.72;;;29.17;;
84937;SDS011;75210;52.210;20.902;2024-01-10T00:28:22;79.07;;;27.83;;
84937;SDS011;75210;52.210;20.902;2024-01-10T00:29:23;75.68;;;28.73;;
84937;SDS011;75210;52.210;20.902;2024-01-10T00:30:23;78.32;;;27.55;;
84937;SDS011;75210;52.210;20.902;2024-01-10T00:31:24;70.43;;;25.10;;
84937;SDS011;75210;52.210;20.902;2024-01-10T00:32:26;72.97;;;26.42;;
84937;SDS011;75210;52.210;20.902;2024-01-10T00:33:26;70.55;;;26.65;;
84937;SDS011;75210;52.210;20.902;2024-01-10T00:34:27;68.85;;;24.45;;
84937;SDS011;75210;52.210;20.902;2024-01-10T00:35:27;80.30;;;26.60;;
84937;SDS011;75210;52.210;20.902;2024-01-10T00:36:27;76.18;;;27.25;;
84937;SDS011;75210;52.210;20.902;2024-01-10T00:37:28;70.50;;;25.10;;
84937;SDS011;75210;52.210;20.902;2024-01-10T00:38:28;70.25;;;27.10;;
84937;SDS011;75210;52.210;20.902;2024-01-10T00:39:29;70.93;;;25.30;;
84937;SDS011;75210;52.210;20.902;2024-01-10T00:40:29;71.18;;;25.70;;
84937;SDS011;75210;52.210;20.902;2024-01-10T00:41:29;70.93;;;25.80;;
84937;SDS011;75210;52.210;20.902;2024-01-10T00:42:30;69.90;;;26.65;;
84937;SDS011;75210;52.210;20.902;2024-01-10T00:43:30;69.53;;;25.27;;
84937;SDS011;75210;52.210;20.902;2024-01-10T00:44:30;67.30;;;25.30;;
84937;SDS011;75210;52.210;20.902;2024-01-10T00:45:31;67.97;;;23.95;;
84937;SDS011;75210;52.210;20.902;2024-01-10T00:46:31;70.93;;;26.88;;
84937;SDS011;75210;52.210;20.902;2024-01-10T00:47:33;70.45;;;27.52;;
84937;SDS011;75210;52.210;20.902;2024-01-10T00:48:34;74.85;;;25.10;;
84937;SDS011;75210;52.210;20.902;2024-01-10T00:49:34;79.03;;;28.30;;
84937;SDS011;75210;52.210;20.902;2024-01-10T00:50:34;69.57;;;26.00;;
84937;SDS011;75210;52.210;20.902;2024-01-10T00:51:35;68.22;;;26.70;;
84937;SDS011;75210;52.210;20.902;2024-01-10T00:52:35;73.82;;;25.55;;
84937;SDS011;75210;52.210;20.902;2024-01-10T00:53:36;71.00;;;26.17;;
84937;SDS011;75210;52.210;20.902;2024-01-10T00:54:36;66.90;;;26.40;;
84937;SDS011;75210;52.210;20.902;2024-01-10T00:55:37;72.97;;;26.80;;
84937;SDS011;75210;52.210;20.902;2024-01-10T00:56:37;75.32;;;27.20;;
84937;SDS011;75210;52.210;20.902;2024-01-10T00:57:37;77.07;;;27.98;;
84937;SDS011;75210;52.210;20.902;2024-01-10T00:58:38;73.95;;;27.52;;
84937;SDS011;75210;52.210;20.902;2024-01-10T00:59:38;74.43;;;27.40;;
84937;SDS011;75210;52.210;20.902;2024-01-10T01:00:39;72.30;;;26.48;;
84937;SDS011;75210;52.210;20.902;2024-01-10T01:01:39;76.38;;;26.00;;
84937;SDS011;75210;52.210;20.902;2024-01-10T01:02:41;77.70;;;25.55;;
84937;SDS011;75210;52.210;20.902;2024-01-10T01:03:41;74.05;;;27.60;;
84937;SDS011;75210;52.210;20.902;2024-01-10T01:04:42;75.07;;;28.33;;
84937;SDS011;75210;52.210;20.902;2024-01-10T01:05:42;75.85;;;25.90;;
84937;SDS011;75210;52.210;20.902;2024-01-10T01:06:42;81.65;;;29.38;;
84937;SDS011;75210;52.210;20.902;2024-01-10T01:07:43;74.03;;;29.02;;
84937;SDS011;75210;52.210;20.902;2024-01-10T01:08:43;72.80;;;27.50;;
84937;SDS011;75210;52.210;20.902;2024-01-10T01:09:44;77.90;;;25.70;;
84937;SDS011;75210;52.210;20.902;2024-01-10T01:10:44;71.72;;;24.60;;
84937;SDS011;75210;52.210;20.902;2024-01-10T01:11:44;73.07;;;28.17;;
84937;SDS011;75210;52.210;20.902;2024-01-10T01:12:45;75.82;;;26.33;;
84937;SDS011;75210;52.210;20.902;2024-01-10T01:13:45;80.07;;;29.33;;
84937;SDS011;75210;52.210;20.902;2024-01-10T01:14:46;77.35;;;28.95;;
84937;SDS011;75210;52.210;20.902;2024-01-10T01:15:46;76.40;;;26.08;;
84937;SDS011;75210;52.210;20.902;2024-01-10T01:16:46;71.18;;;26.40;;
84937;SDS011;75210;52.210;20.902;2024-01-10T01:17:48;72.45;;;28.73;;
84937;SDS011;75210;52.210;20.902;2024-01-10T01:18:48;85.43;;;29.75;;
84937;SDS011;75210;52.210;20.902;2024-01-10T01:19:49;77.25;;;25.65;;
84937;SDS011;75210;52.210;20.902;2024-01-10T01:20:49;68.90;;;27.02;;
84937;SDS011;75210;52.210;20.902;2024-01-10T01:21:50;74.40;;;26.20;;
84937;SDS011;75210;52.210;20.902;2024-01-10T01:22:50;86.20;;;28.83;;
84937;SDS011;75210;52.210;20.902;2024-01-10T01:23:50;73.93;;;26.52;;
84937;SDS011;75210;52.210;20.902;2024-01-10T01:24:51;79.40;;;28.48;;
84937;SDS011;75210;52.210;20.902;2024-01-10T01:25:52;83.15;;;29.20;;
84937;SDS011;75210;52.210;20.902;2024-01-10T01:26:52;80.70;;;29.27;;
84937;SDS011;75210;52.210;20.902;2024-01-10T01:27:53;85.20;;;28.83;;
84937;SDS011;75210;52.210;20.902;2024-01-10T01:28:53;82.78;;;29.60;;
84937;SDS011;75210;52.210;20.902;2024-01-10T01:29:53;75.43;;;27.70;;
84937;SDS011;75210;52.210;20.902;2024-01-10T01:30:54;74.88;;;27.80;;
84937;SDS011;75210;52.210;20.902;2024-01-10T01:31:54;81.25;;;29.13;;
84937;SDS011;75210;52.210;20.902;2024-01-10T01:32:56;76.90;;;28.70;;
84937;SDS011;75210;52.210;20.902;2024-01-10T01:33:57;78.72;;;29.65;;
84937;SDS011;75210;52.210;20.902;2024-01-10T01:34:57;79.70;;;28.17;;
84937;SDS011;75210;52.210;20.902;2024-01-10T01:35:58;84.22;;;30.33;;
84937;SDS011;75210;52.210;20.902;2024-01-10T01:36:58;77.93;;;29.05;;
84937;SDS011;75210;52.210;20.902;2024-01-10T01:37:58;72.38;;;25.73;;
84937;SDS011;75210;52.210;20.902;2024-01-10T01:38:59;74.05;;;26.50;;
84937;SDS011;75210;52.210;20.902;2024-01-10T01:39:59;78.70;;;29.02;;
84937;SDS011;75210;52.210;20.902;2024-01-10T01:41:00;79.57;;;28.48;;
84937;SDS011;75210;52.210;20.902;2024-01-10T01:42:00;76.85;;;27.63;;
84937;SDS011;75210;52.210;20.902;2024-01-10T01:43:00;81.03;;;28.77;;
84937;SDS011;75210;52.210;20.902;2024-01-10T01:44:02;78.47;;;26.10;;
84937;SDS011;75210;52.210;20.902;2024-01-10T01:45:03;80.22;;;27.25;;
84937;SDS011;75210;52.210;20.902;2024-01-10T01:46:03;72.15;;;28.08;;
84937;SDS011;75210;52.210;20.902;2024-01-10T01:47:04;80.00;;;29.00;;
84937;SDS011;75210;52.210;20.902;2024-01-10T01:48:06;73.95;;;27.77;;
84937;SDS011;75210;52.210;20.902;2024-01-10T01:50:07;74.95;;;27.15;;
84937;SDS011;75210;52.210;20.902;2024-01-10T01:51:08;72.03;;;26.88;;
84937;SDS011;75210;52.210;20.902;2024-01-10T01:52:10;76.82;;;28.42;;
84937;SDS011;75210;52.210;20.902;2024-01-10T01:53:12;75.72;;;28.77;;
84937;SDS011;75210;52.210;20.902;2024-01-10T01:54:13;72.57;;;25.83;;
84937;SDS011;75210;52.210;20.902;2024-01-10T01:55:14;74.60;;;26.73;;
84937;SDS011;75210;52.210;20.902;2024-01-10T01:56:14;67.25;;;24.67;;
84937;SDS011;75210;52.210;20.902;2024-01-10T01:57:15;75.50;;;26.73;;
84937;SDS011;75210;52.210;20.902;2024-01-10T01:58:15;67.30;;;24.70;;
84937;SDS011;75210;52.210;20.902;2024-01-10T01:59:16;71.10;;;26.23;;
84937;SDS011;75210;52.210;20.902;2024-01-10T02:00:17;77.70;;;27.33;;
84937;SDS011;75210;52.210;20.902;2024-01-10T02:01:17;66.82;;;24.10;;
84937;SDS011;75210;52.210;20.902;2024-01-10T02:02:19;68.30;;;25.55;;
84937;SDS011;75210;52.210;20.902;2024-01-10T02:03:23;72.63;;;24.73;;
84937;SDS011;75210;52.210;20.902;2024-01-10T02:04:23;70.63;;;24.20;;
84937;SDS011;75210;52.210;20.902;2024-01-10T02:05:24;69.20;;;26.55;;
84937;SDS011;75210;52.210;20.902;2024-01-10T02:06:25;69.78;;;26.27;;
84937;SDS011;75210;52.210;20.902;2024-01-10T02:07:25;68.40;;;26.00;;
84937;SDS011;75210;52.210;20.902;2024-01-10T02:08:26;70.20;;;25.15;;
84937;SDS011;75210;52.210;20.902;2024-01-10T02:09:27;76.10;;;27.25;;
84937;SDS011;75210;52.210;20.902;2024-01-10T02:10:27;73.82;;;25.67;;
84937;SDS011;75210;52.210;20.902;2024-01-10T02:11:28;69.00;;;25.20;;
84937;SDS011;75210;52.210;20.902;2024-01-10T02:12:28;75.22;;;26.00;;
84937;SDS011;75210;52.210;20.902;2024-01-10T02:13:29;69.40;;;24.95;;
84937;SDS011;75210;52.210;20.902;2024-01-10T02:14:30;68.72;;;24.85;;
84937;SDS011;75210;52.210;20.902;2024-01-10T02:15:31;72.05;;;25.23;;
84937;SDS011;75210;52.210;20.902;2024-01-10T02:16:31;63.20;;;23.85;;
84937;SDS011;75210;52.210;20.902;2024-01-10T02:17:32;73.28;;;24.13;;
84937;SDS011;75210;52.210;20.902;2024-01-10T02:18:34;67.82;;;25.35;;
84937;SDS011;75210;52.210;20.902;2024-01-10T02:19:35;73.55;;;25.58;;
84937;SDS011;75210;52.210;20.902;2024-01-10T02:20:35;72.05;;;26.05;;
84937;SDS011;75210;52.210;20.902;2024-01-10T02:21:36;71.07;;;24.08;;
84937;SDS011;75210;52.210;20.902;2024-01-10T02:22:36;75.55;;;25.90;;
84937;SDS011;75210;52.210;20.902;2024-01-10T02:23:36;72.03;;;25.48;;
84937;SDS011;75210;52.210;20.902;2024-01-10T02:24:37;74.47;;;26.30;;
84937;SDS011;75210;52.210;20.902;2024-01-10T02:25:38;68.65;;;23.52;;
84937;SDS011;75210;52.210;20.902;2024-01-10T02:26:40;63.50;;;22.60;;
84937;SDS011;75210;52.210;20.902;2024-01-10T02:27:41;64.03;;;23.33;;
84937;SDS011;75210;52.210;20.902;2024-01-10T02:28:41;74.45;;;25.52;;
84937;SDS011;75210;52.210;20.902;2024-01-10T02:29:42;66.57;;;24.30;;
84937;SDS011;75210;52.210;20.902;2024-01-10T02:30:42;68.13;;;23.63;;
84937;SDS011;75210;52.210;20.902;2024-01-10T02:31:42;70.63;;;24.05;;
84937;SDS011;75210;52.210;20.902;2024-01-10T02:32:44;71.22;;;24.35;;
84937;SDS011;75210;52.210;20.902;2024-01-10T02:33:44;68.82;;;25.13;;
84937;SDS011;75210;52.210;20.902;2024-01-10T02:34:45;72.55;;;26.45;;
84937;SDS011;75210;52.210;20.902;2024-01-10T02:35:45;65.38;;;23.48;;
84937;SDS011;75210;52.210;20.902;2024-01-10T02:36:45;74.18;;;26.50;;
84937;SDS011;75210;52.210;20.902;2024-01-10T02:37:46;76.85;;;26.10;;
84937;SDS011;75210;52.210;20.902;2024-01-10T02:38:46;74.07;;;27.17;;
84937;SDS011;75210;52.210;20.902;2024-01-10T02:39:47;68.80;;;26.73;;
84937;SDS011;75210;52.210;20.902;2024-01-10T02:40:48;69.55;;;25.20;;
84937;SDS011;75210;52.210;20.902;2024-01-10T02:41:49;78.38;;;27.10;;
84937;SDS011;75210;52.210;20.902;2024-01-10T02:42:49;67.18;;;25.45;;
84937;SDS011;75210;52.210;20.902;2024-01-10T02:43:50;73.85;;;26.83;;
84937;SDS011;75210;52.210;20.902;2024-01-10T02:44:50;71.03;;;26.10;;
84937;SDS011;75210;52.210;20.902;2024-01-10T02:45:50;76.35;;;26.30;;
84937;SDS011;75210;52.210;20.902;2024-01-10T02:46:51;68.32;;;21.98;;
84937;SDS011;75210;52.210;20.902;2024-01-10T02:47:51;67.93;;;24.73;;
84937;SDS011;75210;52.210;20.902;2024-01-10T02:48:51;72.80;;;26.48;;
84937;SDS011;75210;52.210;20.902;2024-01-10T02:49:52;67.13;;;26.20;;
84937;SDS011;75210;52.210;20.902;2024-01-10T02:50:52;69.45;;;25.73;;
84937;SDS011;75210;52.210;20.902;2024-01-10T02:51:53;67.40;;;23.60;;
84937;SDS011;75210;52.210;20.902;2024-01-10T02:52:53;67.15;;;24.67;;
84937;SDS011;75210;52.210;20.902;2024-01-10T02:53:53;76.18;;;26.67;;
84937;SDS011;75210;52.210;20.902;2024-01-10T02:54:54;69.90;;;27.02;;
84937;SDS011;75210;52.210;20.902;2024-01-10T02:55:55;69.53;;;26.85;;
84937;SDS011;75210;52.210;20.902;2024-01-10T02:56:56;70.63;;;24.23;;
84937;SDS011;75210;52.210;20.902;2024-01-10T02:57:56;71.07;;;25.95;;
84937;SDS011;75210;52.210;20.902;2024-01-10T02:58:57;69.78;;;25.45;;
84937;SDS011;75210;52.210;20.902;2024-01-10T02:59:57;79.57;;;28.52;;
84937;SDS011;75210;52.210;20.902;2024-01-10T03:00:57;74.90;;;28.48;;
84937;SDS011;75210;52.210;20.902;2024-01-10T03:01:58;76.72;;;26.60;;
84937;SDS011;75210;52.210;20.902;2024-01-10T03:02:58;76.43;;;26.75;;
84937;SDS011;75210;52.210;20.902;2024-01-10T03:03:58;77.00;;;29.08;;
84937;SDS011;75210;52.210;20.902;2024-01-10T03:04:59;69.57;;;26.90;;
84937;SDS011;75210;52.210;20.902;2024-01-10T03:05:59;76.93;;;27.42;;
84937;SDS011;75210;52.210;20.902;2024-01-10T03:07:00;70.30;;;27.23;;
84937;SDS011;75210;52.210;20.902;2024-01-10T03:08:00;79.22;;;28.35;;
84937;SDS011;75210;52.210;20.902;2024-01-10T03:09:00;78.68;;;29.08;;
84937;SDS011;75210;52.210;20.902;2024-01-10T03:10:01;74.72;;;25.98;;
84937;SDS011;75210;52.210;20.902;2024-01-10T03:11:03;80.82;;;28.90;;
84937;SDS011;75210;52.210;20.902;2024-01-10T03:12:04;70.55;;;25.67;;
84937;SDS011;75210;52.210;20.902;2024-01-10T03:13:04;71.57;;;27.63;;
84937;SDS011;75210;52.210;20.902;2024-01-10T03:14:07;67.38;;;25.13;;
84937;SDS011;75210;52.210;20.902;2024-01-10T03:15:08;66.20;;;24.25;;
84937;SDS011;75210;52.210;20.902;2024-01-10T03:16:09;73.55;;;28.67;;
84937;SDS011;75210;52.210;20.902;2024-01-10T03:17:09;77.00;;;28.50;;
84937;SDS011;75210;52.210;20.902;2024-01-10T03:18:10;79.68;;;28.55;;
84937;SDS011;75210;52.210;20.902;2024-01-10T03:19:10;72.38;;;26.20;;
84937;SDS011;75210;52.210;20.902;2024-01-10T03:20:11;70.63;;;26.63;;
84937;SDS011;75210;52.210;20.902;2024-01-10T03:21:11;83.13;;;28.88;;
84937;SDS011;75210;52.210;20.902;2024-01-10T03:22:12;80.40;;;29.30;;
84937;SDS011;75210;52.210;20.902;2024-01-10T03:23:12;60.78;;;23.58;;
84937;SDS011;75210;52.210;20.902;2024-01-10T03:24:13;70.97;;;26.73;;
84937;SDS011;75210;52.210;20.902;2024-01-10T03:25:13;67.82;;;25.30;;
84937;SDS011;75210;52.210;20.902;2024-01-10T03:26:15;70.88;;;24.80;;
84937;SDS011;75210;52.210;20.902;2024-01-10T03:27:15;70.18;;;26.95;;
84937;SDS011;75210;52.210;20.902;2024-01-10T03:28:15;77.40;;;27.33;;
84937;SDS011;75210;52.210;20.902;2024-01-10T03:29:16;71.05;;;26.92;;
84937;SDS011;75210;52.210;20.902;2024-01-10T03:30:17;65.53;;;24.17;;
84937;SDS011;75210;52.210;20.902;2024-01-10T03:31:17;76.10;;;27.45;;
84937;SDS011;75210;52.210;20.902;2024-01-10T03:32:18;70.65;;;26.10;;
84937;SDS011;75210;52.210;20.902;2024-01-10T03:33:19;72.03;;;24.73;;
84937;SDS011;75210;52.210;20.902;2024-01-10T03:34:19;73.38;;;26.77;;
84937;SDS011;75210;52.210;20.902;2024-01-10T03:35:19;74.47;;;26.20;;
84937;SDS011;75210;52.210;20.902;2024-01-10T03:36:20;67.68;;;25.15;;
84937;SDS011;75210;52.210;20.902;2024-01-10T03:37:20;76.65;;;27.33;;
84937;SDS011;75210;52.210;20.902;2024-01-10T03:38:20;71.35;;;25.55;;
84937;SDS011;75210;52.210;20.902;2024-01-10T03:39:21;58.33;;;21.45;;
84937;SDS011;75210;52.210;20.902;2024-01-10T03:40:21;64.32;;;25.67;;
84937;SDS011;75210;52.210;20.902;2024-01-10T03:41:23;69.57;;;26.50;;
84937;SDS011;75210;52.210;20.902;2024-01-10T03:42:23;70.00;;;26.15;;
84937;SDS011;75210;52.210;20.902;2024-01-10T03:43:24;71.65;;;25.10;;
84937;SDS011;75210;52.210;20.902;2024-01-10T03:44:25;69.10;;;23.65;;
84937;SDS011;75210;52.210;20.902;2024-01-10T03:45:26;66.07;;;25.83;;
84937;SDS011;75210;52.210;20.902;2024-01-10T03:46:27;69.00;;;25.60;;
84937;SDS011;75210;52.210;20.902;2024-01-10T03:47:27;74.60;;;26.05;;
84937;SDS011;75210;52.210;20.902;2024-01-10T03:48:27;75.03;;;27.52;;
84937;SDS011;75210;52.210;20.902;2024-01-10T03:49:28;75.90;;;25.23;;
84937;SDS011;75210;52.210;20.902;2024-01-10T03:50:28;80.57;;;26.35;;
84937;SDS011;75210;52.210;20.902;2024-01-10T03:51:29;89.47;;;30.98;;
84937;SDS011;75210;52.210;20.902;2024-01-10T03:52:29;83.63;;;29.25;;
84937;SDS011;75210;52.210;20.902;2024-01-10T03:53:29;81.13;;;26.98;;
84937;SDS011;75210;52.210;20.902;2024-01-10T03:54:30;59.20;;;22.23;;
84937;SDS011;75210;52.210;20.902;2024-01-10T03:55:30;73.18;;;25.63;;
84937;SDS011;75210;52.210;20.902;2024-01-10T03:56:32;68.22;;;22.60;;
84937;SDS011;75210;52.210;20.902;2024-01-10T03:57:32;72.63;;;26.55;;
84937;SDS011;75210;52.210;20.902;2024-01-10T03:58:33;68.65;;;24.10;;
84937;SDS011;75210;52.210;20.902;2024-01-10T03:59:33;69.60;;;24.60;;
84937;SDS011;75210;52.210;20.902;2024-01-10T04:00:34;69.63;;;25.55;;
84937;SDS011;75210;52.210;20.902;2024-01-10T04:01:34;54.78;;;19.38;;
84937;SDS011;75210;52.210;20.902;2024-01-10T04:02:36;69.90;;;23.08;;
84937;SDS011;75210;52.210;20.902;2024-01-10T04:03:36;55.70;;;19.92;;
84937;SDS011;75210;52.210;20.902;2024-01-10T04:04:37;76.45;;;25.65;;
84937;SDS011;75210;52.210;20.902;2024-01-10T04:05:37;67.68;;;25.58;;
84937;SDS011;75210;52.210;20.902;2024-01-10T04:06:38;69.53;;;26.48;;
84937;SDS011;75210;52.210;20.902;2024-01-10T04:07:39;69.90;;;24.77;;
84937;SDS011;75210;52.210;20.902;2024-01-10T04:08:40;70.88;;;25.95;;
84937;SDS011;75210;52.210;20.902;2024-01-10T04:09:40;71.53;;;24.70;;
84937;SDS011;75210;52.210;20.902;2024-01-10T04:10:40;64.95;;;23.95;;
84937;SDS011;75210;52.210;20.902;2024-01-10T04:11:42;64.88;;;24.70;;
84937;SDS011;75210;52.210;20.902;2024-01-10T04:12:43;70.40;;;25.27;;
84937;SDS011;75210;52.210;20.902;2024-01-10T04:13:43;72.07;;;25.23;;
84937;SDS011;75210;52.210;20.902;2024-01-10T04:14:44;60.80;;;22.52;;
84937;SDS011;75210;52.210;20.902;2024-01-10T04:15:44;67.65;;;24.77;;
84937;SDS011;75210;52.210;20.902;2024-01-10T04:16:45;64.82;;;21.95;;
84937;SDS011;75210;52.210;20.902;2024-01-10T04:17:45;74.63;;;26.23;;
84937;SDS011;75210;52.210;20.902;2024-01-10T04:18:46;67.88;;;24.90;;
84937;SDS011;75210;52.210;20.902;2024-01-10T04:19:46;69.03;;;24.98;;
84937;SDS011;75210;52.210;20.902;2024-01-10T04:20:47;75.05;;;26.75;;
84937;SDS011;75210;52.210;20.902;2024-01-10T04:21:47;69.15;;;23.65;;
84937;SDS011;75210;52.210;20.902;2024-01-10T04:22:48;58.83;;;21.90;;
84937;SDS011;75210;52.210;20.902;2024-01-10T04:23:48;64.70;;;23.75;;
84937;SDS011;75210;52.210;20.902;2024-01-10T04:24:49;69.32;;;23.65;;
84937;SDS011;75210;52.210;20.902;2024-01-10T04:25:49;65.55;;;22.50;;
84937;SDS011;75210;52.210;20.902;2024-01-10T04:26:51;66.00;;;24.00;;
84937;SDS011;75210;52.210;20.902;2024-01-10T04:27:51;68.93;;;24.23;;
84937;SDS011;75210;52.210;20.902;2024-01-10T04:28:51;69.45;;;25.15;;
84937;SDS011;75210;52.210;20.902;2024-01-10T04:29:52;68.75;;;24.77;;
84937;SDS011;75210;52.210;20.902;2024-01-10T04:30:52;74.45;;;24.58;;
84937;SDS011;75210;52.210;20.902;2024-01-10T04:31:53;66.90;;;24.25;;
84937;SDS011;75210;52.210;20.902;2024-01-10T04:32:54;76.05;;;25.50;;
84937;SDS011;75210;52.210;20.902;2024-01-10T04:33:55;64.00;;;23.42;;
84937;SDS011;75210;52.210;20.902;2024-01-10T04:34:55;69.60;;;24.42;;
84937;SDS011;75210;52.210;20.902;2024-01-10T04:35:56;64.20;;;24.50;;
84937;SDS011;75210;52.210;20.902;2024-01-10T04:36:56;62.22;;;22.08;;
84937;SDS011;75210;52.210;20.902;2024-01-10T04:37:56;60.75;;;22.10;;
84937;SDS011;75210;52.210;20.902;2024-01-10T04:38:57;67.20;;;23.05;;
84937;SDS011;75210;52.210;20.902;2024-01-10T04:39:57;66.10;;;24.98;;
84937;SDS011;75210;52.210;20.902;2024-01-10T04:40:57;63.50;;;23.90;;
84937;SDS011;75210;52.210;20.902;2024-01-10T04:41:59;65.82;;;23.80;;
84937;SDS011;75210;52.210;20.902;2024-01-10T04:43:00;67.13;;;24.38;;
84937;SDS011;75210;52.210;20.902;2024-01-10T04:44:00;60.08;;;22.80;;
84937;SDS011;75210;52.210;20.902;2024-01-10T04:45:00;65.57;;;24.50;;
84937;SDS011;75210;52.210;20.902;2024-01-10T04:46:01;73.60;;;25.95;;
84937;SDS011;75210;52.210;20.902;2024-01-10T04:47:01;66.15;;;24.17;;
84937;SDS011;75210;52.210;20.902;2024-01-10T04:48:02;65.57;;;25.17;;
84937;SDS011;75210;52.210;20.902;2024-01-10T04:49:03;75.70;;;27.48;;
84937;SDS011;75210;52.210;20.902;2024-01-10T04:50:03;72.35;;;24.90;;
84937;SDS011;75210;52.210;20.902;2024-01-10T04:51:04;70.05;;;24.85;;
84937;SDS011;75210;52.210;20.902;2024-01-10T04:52:05;62.40;;;24.38;;
84937;SDS011;75210;52.210;20.902;2024-01-10T04:53:05;73.18;;;23.92;;
84937;SDS011;75210;52.210;20.902;2024-01-10T04:54:06;70.05;;;26.50;;
84937;SDS011;75210;52.210;20.902;2024-01-10T04:55:06;66.70;;;25.15;;
84937;SDS011;75210;52.210;20.902;2024-01-10T04:56:07;70.72;;;25.00;;
84937;SDS011;75210;52.210;20.902;2024-01-10T04:57:09;74.45;;;24.50;;
84937;SDS011;75210;52.210;20.902;2024-01-10T04:58:09;82.50;;;27.13;;
84937;SDS011;75210;52.210;20.902;2024-01-10T04:59:10;65.43;;;22.95;;
84937;SDS011;75210;52.210;20.902;2024-01-10T05:00:10;70.15;;;22.90;;
84937;SDS011;75210;52.210;20.902;2024-01-10T05:01:11;76.88;;;27.33;;
84937;SDS011;75210;52.210;20.902;2024-01-10T05:02:11;89.20;;;26.67;;
84937;SDS011;75210;52.210;20.902;2024-01-10T05:03:12;74.82;;;24.58;;
84937;SDS011;75210;52.210;20.902;2024-01-10T05:04:12;75.85;;;25.95;;
84937;SDS011;75210;52.210;20.902;2024-01-10T05:05:13;71.38;;;25.80;;
84937;SDS011;75210;52.210;20.902;2024-01-10T05:06:13;69.15;;;24.73;;
84937;SDS011;75210;52.210;20.902;2024-01-10T05:07:13;70.25;;;26.02;;
84937;SDS011;75210;52.210;20.902;2024-01-10T05:08:14;53.55;;;18.90;;
84937;SDS011;75210;52.210;20.902;2024-01-10T05:09:14;62.17;;;21.13;;
84937;SDS011;75210;52.210;20.902;2024-01-10T05:10:15;64.05;;;21.90;;
84937;SDS011;75210;52.210;20.902;2024-01-10T05:11:15;65.45;;;22.92;;
84937;SDS011;75210;52.210;20.902;2024-01-10T05:12:17;62.03;;;23.30;;
84937;SDS011;75210;52.210;20.902;2024-01-10T05:13:18;60.58;;;21.25;;
84937;SDS011;75210;52.210;20.902;2024-01-10T05:14:18;58.15;;;21.27;;
84937;SDS011;75210;52.210;20.902;2024-01-10T05:15:19;66.88;;;23.40;;
84937;SDS011;75210;52.210;20.902;2024-01-10T05:16:19;62.08;;;21.13;;
84937;SDS011;75210;52.210;20.902;2024-01-10T05:17:19;62.92;;;22.05;;
84937;SDS011;75210;52.210;20.902;2024-01-10T05:18:20;62.30;;;22.77;;
84937;SDS011;75210;52.210;20.902;2024-01-10T05:19:21;65.15;;;22.40;;
84937;SDS011;75210;52.210;20.902;2024-01-10T05:20:21;63.63;;;22.10;;
84937;SDS011;75210;52.210;20.902;2024-01-10T05:21:22;59.40;;;21.23;;
84937;SDS011;75210;52.210;20.902;2024-01-10T05:22:22;68.65;;;24.08;;
84937;SDS011;75210;52.210;20.902;2024-01-10T05:23:23;64.90;;;22.05;;
84937;SDS011;75210;52.210;20.902;2024-01-10T05:24:23;67.60;;;23.25;;
84937;SDS011;75210;52.210;20.902;2024-01-10T05:25:23;61.72;;;23.80;;
84937;SDS011;75210;52.210;20.902;2024-01-10T05:26:24;60.92;;;23.08;;
84937;SDS011;75210;52.210;20.902;2024-01-10T05:27:26;65.00;;;23.45;;
84937;SDS011;75210;52.210;20.902;2024-01-10T05:28:26;64.88;;;22.20;;
84937;SDS011;75210;52.210;20.902;2024-01-10T05:29:26;67.15;;;21.48;;
84937;SDS011;75210;52.210;20.902;2024-01-10T05:30:27;69.35;;;24.98;;
84937;SDS011;75210;52.210;20.902;2024-01-10T05:31:27;68.13;;;24.40;;
84937;SDS011;75210;52.210;20.902;2024-01-10T05:32:28;61.45;;;23.27;;
84937;SDS011;75210;52.210;20.902;2024-01-10T05:33:28;64.18;;;24.27;;
84937;SDS011;75210;52.210;20.902;2024-01-10T05:34:29;66.35;;;23.48;;
84937;SDS011;75210;52.210;20.902;2024-01-10T05:35:29;65.00;;;23.33;;
84937;SDS011;75210;52.210;20.902;2024-01-10T05:36:29;68.75;;;25.15;;
84937;SDS011;75210;52.210;20.902;2024-01-10T05:37:30;59.10;;;20.83;;
84937;SDS011;75210;52.210;20.902;2024-01-10T05:38:30;66.22;;;24.20;;
84937;SDS011;75210;52.210;20.902;2024-01-10T05:39:30;67.47;;;25.33;;
84937;SDS011;75210;52.210;20.902;2024-01-10T05:40:31;74.60;;;25.45;;
84937;SDS011;75210;52.210;20.902;2024-01-10T05:41:32;65.68;;;24.33;;
84937;SDS011;75210;52.210;20.902;2024-01-10T05:42:33;69.90;;;25.10;;
84937;SDS011;75210;52.210;20.902;2024-01-10T05:43:34;66.20;;;22.40;;
84937;SDS011;75210;52.210;20.902;2024-01-10T05:44:34;63.22;;;20.65;;
84937;SDS011;75210;52.210;20.902;2024-01-10T05:45:34;59.83;;;20.40;;
84937;SDS011;75210;52.210;20.902;2024-01-10T05:46:35;68.15;;;24.58;;
84937;SDS011;75210;52.210;20.902;2024-01-10T05:47:35;60.20;;;21.25;;
84937;SDS011;75210;52.210;20.902;2024-01-10T05:48:36;60.75;;;21.10;;
84937;SDS011;75210;52.210;20.902;2024-01-10T05:49:36;68.05;;;23.60;;